createdAt,value
2023-04-05T00:00:39.189Z,0.00
2023-04-05T00:01:38.558Z,0.00
2023-04-05T00:02:39.256Z,0.00
2023-04-05T00:03:38.595Z,0.00
2023-04-05T00:04:38.968Z,0.00
2023-04-05T00:05:39.194Z,0.00
2023-04-05T00:06:39.192Z,0.00
2023-04-05T00:07:39.183Z,0.00
2023-04-05T00:08:38.479Z,0.00
2023-04-05T00:09:38.485Z,0.00
2023-04-05T00:10:39.305Z,0.00
2023-04-05T00:11:39.139Z,0.00
2023-04-05T00:12:39.152Z,0.00
2023-04-05T00:13:39.394Z,0.00
2023-04-05T00:14:39.109Z,0.00
2023-04-05T00:15:38.434Z,0.00
2023-04-05T00:16:38.442Z,0.00
2023-04-05T00:17:39.186Z,0.00
2023-04-05T00:18:39.067Z,0.00
2023-04-05T00:19:39.055Z,0.00
2023-04-05T00:20:39.277Z,0.00
2023-04-05T00:21:39.034Z,0.00
2023-04-05T00:22:38.340Z,0.00
2023-04-05T00:23:39.024Z,0.00
2023-04-05T00:24:39.007Z,0.00
2023-04-05T00:25:38.326Z,0.00
2023-04-05T00:26:38.981Z,0.00
2023-04-05T00:27:38.287Z,0.00
2023-04-05T00:28:38.265Z,0.00
2023-04-05T00:29:38.958Z,0.00
2023-04-05T00:30:39.229Z,0.00
2023-04-05T00:31:38.956Z,0.00
2023-04-05T00:32:38.257Z,0.00
2023-04-05T00:33:38.216Z,0.00
2023-04-05T00:34:38.903Z,0.00
2023-04-05T00:35:38.256Z,0.00
2023-04-05T00:36:38.874Z,0.00
2023-04-05T00:37:38.869Z,0.00
2023-04-05T00:38:38.174Z,0.00
2023-04-05T00:39:38.158Z,0.00
2023-04-05T00:40:38.816Z,0.00
2023-04-05T00:41:38.838Z,0.00
2023-04-05T00:42:39.093Z,0.00
2023-04-05T00:43:39.074Z,0.00
2023-04-05T00:44:39.046Z,0.00
2023-04-05T00:45:39.071Z,0.00
2023-04-05T00:46:38.178Z,0.00
2023-04-05T00:47:38.151Z,0.00
2023-04-05T00:48:38.753Z,0.00
2023-04-05T00:49:38.751Z,0.00
2023-04-05T00:50:38.599Z,0.00
2023-04-05T00:51:38.720Z,0.00
2023-04-05T00:52:38.060Z,0.00
2023-04-05T00:53:38.711Z,0.00
2023-04-05T00:54:38.681Z,0.00
2023-04-05T00:55:38.001Z,0.00
2023-04-05T00:56:37.982Z,0.00
2023-04-05T00:57:38.649Z,0.00
2023-04-05T00:58:38.635Z,0.00
2023-04-05T00:59:38.629Z,0.00
2023-04-05T01:00:38.806Z,0.00
2023-04-05T01:01:38.892Z,0.00
2023-04-05T01:02:38.880Z,0.00
2023-04-05T01:03:38.585Z,0.00
2023-04-05T01:04:38.616Z,0.00
2023-04-05T01:05:38.841Z,0.00
2023-04-05T01:06:38.552Z,0.00
2023-04-05T01:07:38.820Z,0.00
2023-04-05T01:08:37.839Z,0.00
2023-04-05T01:09:38.532Z,0.00
2023-04-05T01:10:38.491Z,0.00
2023-04-05T01:11:38.511Z,0.00
2023-04-05T01:12:38.485Z,0.00
2023-04-05T01:13:38.472Z,0.00
2023-04-05T01:14:38.463Z,0.00
2023-04-05T01:15:37.841Z,0.00
2023-04-05T01:16:38.438Z,0.00
2023-04-05T01:17:37.828Z,0.00
2023-04-05T01:18:38.419Z,0.00
2023-04-05T01:19:38.668Z,0.00
2023-04-05T01:20:38.435Z,0.00
2023-04-05T01:21:38.385Z,0.00
2023-04-05T01:22:38.641Z,0.00
2023-04-05T01:23:38.630Z,0.00
2023-04-05T01:24:38.362Z,0.00
2023-04-05T01:25:38.348Z,0.00
2023-04-05T01:26:37.649Z,0.00
2023-04-05T01:27:38.594Z,0.00
2023-04-05T01:28:38.586Z,0.00
2023-04-05T01:29:38.302Z,0.00
2023-04-05T01:30:38.492Z,0.00
2023-04-05T01:31:37.702Z,0.00
2023-04-05T01:32:38.293Z,0.00
2023-04-05T01:33:38.259Z,0.00
2023-04-05T01:34:37.572Z,0.00
2023-04-05T01:35:38.227Z,0.00
2023-04-05T01:36:37.558Z,0.00
2023-04-05T01:37:38.228Z,0.00
2023-04-05T01:38:37.557Z,0.00
2023-04-05T01:39:37.523Z,0.00
2023-04-05T01:40:38.244Z,0.00
2023-04-05T01:41:38.177Z,0.00
2023-04-05T01:42:38.168Z,0.00
2023-04-05T01:43:37.473Z,0.00
2023-04-05T01:44:37.472Z,0.00
2023-04-05T01:45:38.130Z,0.00
2023-04-05T01:46:38.177Z,0.00
2023-04-05T01:47:38.165Z,0.00
2023-04-05T01:48:38.108Z,0.00
2023-04-05T01:49:38.099Z,0.00
2023-04-05T01:50:37.565Z,0.00
2023-04-05T01:51:37.508Z,0.00
2023-04-05T01:52:37.659Z,0.00
2023-04-05T01:53:38.055Z,0.00
2023-04-05T01:54:38.052Z,0.00
2023-04-05T01:55:37.390Z,0.00
2023-04-05T01:56:37.450Z,0.00
2023-04-05T01:57:38.017Z,0.00
2023-04-05T01:58:38.051Z,0.00
2023-04-05T01:59:38.165Z,0.00
2023-04-05T02:00:37.484Z,0.00
2023-04-05T02:01:37.434Z,0.00
2023-04-05T02:02:38.263Z,0.00
2023-04-05T02:03:38.027Z,0.00
2023-04-05T02:04:37.452Z,0.00
2023-04-05T02:05:37.501Z,0.00
2023-04-05T02:06:37.302Z,0.00
2023-04-05T02:07:37.467Z,0.00
2023-04-05T02:08:37.227Z,0.00
2023-04-05T02:09:37.984Z,0.00
2023-04-05T02:10:37.523Z,0.00
2023-04-05T02:11:37.948Z,0.00
2023-04-05T02:12:37.195Z,0.00
2023-04-05T02:13:37.224Z,0.00
2023-04-05T02:14:37.835Z,0.00
2023-04-05T02:15:37.133Z,0.00
2023-04-05T02:16:37.822Z,0.00
2023-04-05T02:17:37.159Z,0.00
2023-04-05T02:18:37.789Z,0.00
2023-04-05T02:19:37.153Z,0.00
2023-04-05T02:20:37.811Z,0.00
2023-04-05T02:21:37.742Z,0.00
2023-04-05T02:22:37.746Z,0.00
2023-04-05T02:23:38.008Z,0.00
2023-04-05T02:24:37.040Z,0.00
2023-04-05T02:25:37.068Z,0.00
2023-04-05T02:26:37.049Z,0.00
2023-04-05T02:27:37.717Z,0.00
2023-04-05T02:28:37.684Z,0.00
2023-04-05T02:29:37.676Z,0.00
2023-04-05T02:30:36.976Z,0.00
2023-04-05T02:31:37.039Z,0.00
2023-04-05T02:32:37.660Z,0.00
2023-04-05T02:33:36.982Z,0.00
2023-04-05T02:34:37.614Z,0.00
2023-04-05T02:35:37.756Z,0.00
2023-04-05T02:36:37.577Z,0.00
2023-04-05T02:37:37.593Z,0.00
2023-04-05T02:38:36.897Z,0.00
2023-04-05T02:39:36.879Z,0.00
2023-04-05T02:40:37.550Z,0.00
2023-04-05T02:41:37.523Z,0.00
2023-04-05T02:42:36.852Z,0.00
2023-04-05T02:43:36.836Z,0.00
2023-04-05T02:44:36.810Z,0.00
2023-04-05T02:45:37.526Z,0.00
2023-04-05T02:46:37.473Z,0.00
2023-04-05T02:47:36.861Z,0.00
2023-04-05T02:48:36.790Z,0.00
2023-04-05T02:49:36.982Z,0.00
2023-04-05T02:50:36.759Z,0.00
2023-04-05T02:51:37.413Z,0.00
2023-04-05T02:52:36.764Z,0.00
2023-04-05T02:53:36.736Z,0.00
2023-04-05T02:54:36.735Z,0.00
2023-04-05T02:55:37.391Z,0.00
2023-04-05T02:56:36.707Z,0.00
2023-04-05T02:57:37.365Z,0.00
2023-04-05T02:58:37.351Z,0.00
2023-04-05T02:59:36.671Z,0.00
2023-04-05T03:00:36.670Z,0.00
2023-04-05T03:01:36.825Z,0.00
2023-04-05T03:02:36.727Z,0.00
2023-04-05T03:03:36.632Z,0.00
2023-04-05T03:04:37.545Z,0.00
2023-04-05T03:05:36.584Z,0.00
2023-04-05T03:06:36.599Z,0.00
2023-04-05T03:07:36.580Z,0.00
2023-04-05T03:08:37.251Z,0.00
2023-04-05T03:09:37.241Z,0.00
2023-04-05T03:10:37.230Z,0.00
2023-04-05T03:11:36.535Z,0.00
2023-04-05T03:12:37.217Z,0.00
2023-04-05T03:13:36.519Z,0.00
2023-04-05T03:14:36.525Z,0.00
2023-04-05T03:15:37.188Z,0.00
2023-04-05T03:16:38.075Z,0.00
2023-04-05T03:17:36.496Z,0.00
2023-04-05T03:18:36.537Z,0.00
2023-04-05T03:19:36.493Z,0.00
2023-04-05T03:20:36.435Z,0.00
2023-04-05T03:21:37.090Z,0.00
2023-04-05T03:22:36.416Z,0.00
2023-04-05T03:23:36.420Z,0.00
2023-04-05T03:24:36.383Z,0.00
2023-04-05T03:25:36.386Z,0.00
2023-04-05T03:26:36.391Z,0.00
2023-04-05T03:27:36.355Z,0.00
2023-04-05T03:28:36.350Z,0.00
2023-04-05T03:29:37.033Z,0.00
2023-04-05T03:30:37.028Z,0.00
2023-04-05T03:31:37.029Z,0.00
2023-04-05T03:32:38.244Z,0.00
2023-04-05T03:33:36.283Z,0.00
2023-04-05T03:34:36.963Z,0.00
2023-04-05T03:35:36.283Z,0.00
2023-04-05T03:36:36.930Z,0.00
2023-04-05T03:37:36.935Z,0.00
2023-04-05T03:38:36.243Z,0.00
2023-04-05T03:39:36.322Z,0.00
2023-04-05T03:40:36.904Z,0.00
2023-04-05T03:41:36.219Z,0.00
2023-04-05T03:42:36.201Z,0.00
2023-04-05T03:43:36.876Z,0.00
2023-04-05T03:44:36.873Z,0.00
2023-04-05T03:45:36.857Z,0.00
2023-04-05T03:46:36.841Z,0.00
2023-04-05T03:47:36.183Z,0.00
2023-04-05T03:48:36.321Z,0.00
2023-04-05T03:49:36.392Z,0.00
2023-04-05T03:50:36.201Z,0.00
2023-04-05T03:51:36.107Z,0.00
2023-04-05T03:52:36.085Z,0.00
2023-04-05T03:53:36.105Z,0.00
2023-04-05T03:54:36.763Z,0.00
2023-04-05T03:55:36.986Z,0.00
2023-04-05T03:56:36.138Z,0.00
2023-04-05T03:57:36.049Z,0.00
2023-04-05T03:58:36.041Z,0.00
2023-04-05T03:59:36.215Z,0.00
2023-04-05T04:00:36.065Z,0.00
2023-04-05T04:01:36.671Z,0.00
2023-04-05T04:02:36.855Z,0.00
2023-04-05T04:03:35.967Z,0.00
2023-04-05T04:04:35.994Z,0.00
2023-04-05T04:05:36.641Z,0.00
2023-04-05T04:06:35.969Z,0.00
2023-04-05T04:07:35.929Z,0.00
2023-04-05T04:08:35.918Z,0.00
2023-04-05T04:09:35.941Z,0.00
2023-04-05T04:10:36.633Z,0.00
2023-04-05T04:11:35.914Z,0.00
2023-04-05T04:12:36.565Z,0.00
2023-04-05T04:13:36.564Z,0.00
2023-04-05T04:14:35.879Z,0.00
2023-04-05T04:15:36.536Z,0.00
2023-04-05T04:16:35.891Z,0.00
2023-04-05T04:17:36.546Z,0.00
2023-04-05T04:18:36.510Z,0.00
2023-04-05T04:19:36.496Z,0.00
2023-04-05T04:20:36.485Z,0.00
2023-04-05T04:21:36.453Z,0.00
2023-04-05T04:22:36.467Z,4.00
2023-04-05T04:23:35.764Z,0.00
2023-04-05T04:24:35.743Z,0.00
2023-04-05T04:25:36.437Z,4.00
2023-04-05T04:26:36.403Z,0.00
2023-04-05T04:27:35.731Z,4.00
2023-04-05T04:28:35.724Z,4.00
2023-04-05T04:29:36.391Z,4.00
2023-04-05T04:30:36.378Z,4.00
2023-04-05T04:31:36.396Z,4.00
2023-04-05T04:32:35.736Z,8.00
2023-04-05T04:33:36.353Z,12.00
2023-04-05T04:34:36.339Z,8.00
2023-04-05T04:35:35.659Z,12.00
2023-04-05T04:36:35.649Z,12.00
2023-04-05T04:37:36.309Z,20.00
2023-04-05T04:38:36.303Z,20.00
2023-04-05T04:39:37.807Z,24.00
2023-04-05T04:40:35.610Z,28.00
2023-04-05T04:41:35.601Z,32.00
2023-04-05T04:42:36.258Z,36.00
2023-04-05T04:43:36.252Z,40.00
2023-04-05T04:44:35.540Z,48.00
2023-04-05T04:45:35.558Z,56.00
2023-04-05T04:46:35.527Z,64.00
2023-04-05T04:47:35.543Z,76.00
2023-04-05T04:48:36.199Z,84.00
2023-04-05T04:49:36.212Z,92.00
2023-04-05T04:50:36.173Z,104.00
2023-04-05T04:51:37.445Z,112.00
2023-04-05T04:52:35.454Z,128.00
2023-04-05T04:53:37.399Z,140.00
2023-04-05T04:54:35.441Z,156.00
2023-04-05T04:55:36.137Z,168.00
2023-04-05T04:56:36.096Z,188.00
2023-04-05T04:57:36.103Z,204.00
2023-04-05T04:58:36.367Z,224.00
2023-04-05T04:59:36.080Z,244.00
2023-04-05T05:00:36.365Z,264.00
2023-04-05T05:01:36.403Z,288.00
2023-04-05T05:02:35.388Z,308.00
2023-04-05T05:03:35.358Z,336.00
2023-04-05T05:04:36.458Z,356.00
2023-04-05T05:05:36.047Z,388.00
2023-04-05T05:06:35.999Z,412.00
2023-04-05T05:07:36.256Z,440.00
2023-04-05T05:08:35.988Z,468.00
2023-04-05T05:09:35.299Z,496.00
2023-04-05T05:10:35.294Z,524.00
2023-04-05T05:11:35.307Z,556.00
2023-04-05T05:12:36.209Z,584.00
2023-04-05T05:13:35.246Z,616.00
2023-04-05T05:14:35.253Z,652.00
2023-04-05T05:15:36.201Z,688.00
2023-04-05T05:16:35.252Z,728.00
2023-04-05T05:17:35.913Z,768.00
2023-04-05T05:18:35.886Z,808.00
2023-04-05T05:19:35.875Z,848.00
2023-04-05T05:20:36.140Z,896.00
2023-04-05T05:21:35.200Z,944.00
2023-04-05T05:22:35.163Z,1004.00
2023-04-05T05:23:35.833Z,1064.00
2023-04-05T05:24:35.829Z,1132.00
2023-04-05T05:25:36.030Z,1196.00
2023-04-05T05:26:35.198Z,1268.00
2023-04-05T05:27:35.110Z,1340.00
2023-04-05T05:28:35.802Z,1412.00
2023-04-05T05:29:35.773Z,1484.00
2023-04-05T05:30:35.824Z,1556.00
2023-04-05T05:31:35.827Z,1636.00
2023-04-05T05:32:35.072Z,1824.00
2023-04-05T05:33:35.050Z,2052.00
2023-04-05T05:34:35.728Z,2184.00
2023-04-05T05:35:35.758Z,2296.00
2023-04-05T05:36:35.678Z,2408.00
2023-04-05T05:37:34.999Z,2524.00
2023-04-05T05:38:34.998Z,2652.00
2023-04-05T05:39:34.987Z,2800.00
2023-04-05T05:40:35.653Z,2980.00
2023-04-05T05:41:35.633Z,3184.00
2023-04-05T05:42:35.631Z,3404.00
2023-04-05T05:43:35.893Z,3644.00
2023-04-05T05:44:34.928Z,3708.00
2023-04-05T05:45:34.939Z,3860.00
2023-04-05T05:46:35.020Z,4040.00
2023-04-05T05:47:35.632Z,4144.00
2023-04-05T05:48:35.578Z,4348.00
2023-04-05T05:49:34.873Z,4656.00
2023-04-05T05:50:34.880Z,4920.00
2023-04-05T05:51:35.527Z,5208.00
2023-04-05T05:52:34.846Z,5308.00
2023-04-05T05:53:35.522Z,5432.00
2023-04-05T05:54:34.823Z,6132.00
2023-04-05T05:55:34.827Z,6332.00
2023-04-05T05:56:35.463Z,7424.00
2023-04-05T05:57:34.817Z,8776.00
2023-04-05T05:58:35.477Z,10116.00
2023-04-05T05:59:35.761Z,9868.00
2023-04-05T06:00:35.720Z,7492.00
2023-04-05T06:01:35.430Z,9172.00
2023-04-05T06:02:35.739Z,11488.00
2023-04-05T06:03:34.843Z,8616.00
2023-04-05T06:04:35.510Z,7108.00
2023-04-05T06:05:36.148Z,7700.00
2023-04-05T06:06:36.597Z,6800.00
2023-04-05T06:07:34.713Z,6384.00
2023-04-05T06:08:34.659Z,7332.00
2023-04-05T06:09:35.422Z,8024.00
2023-04-05T06:10:35.343Z,8204.00
2023-04-05T06:11:37.127Z,7408.00
2023-04-05T06:12:35.636Z,7280.00
2023-04-05T06:13:34.630Z,8756.00
2023-04-05T06:14:34.617Z,8980.00
2023-04-05T06:15:35.282Z,7232.00
2023-04-05T06:16:35.302Z,6920.00
2023-04-05T06:17:35.262Z,7496.00
2023-04-05T06:18:35.289Z,7428.00
2023-04-05T06:19:34.560Z,8340.00
2023-04-05T06:20:35.232Z,8544.00
2023-04-05T06:21:35.222Z,7764.00
2023-04-05T06:22:35.197Z,7512.00
2023-04-05T06:23:35.203Z,7988.00
2023-04-05T06:24:35.190Z,8728.00
2023-04-05T06:25:34.496Z,8244.00
2023-04-05T06:26:35.163Z,7356.00
2023-04-05T06:27:35.140Z,6484.00
2023-04-05T06:28:35.448Z,6216.00
2023-04-05T06:29:35.132Z,6200.00
2023-04-05T06:30:34.442Z,6144.00
2023-04-05T06:31:35.485Z,6040.00
2023-04-05T06:32:35.380Z,6040.00
2023-04-05T06:33:35.084Z,6184.00
2023-04-05T06:34:34.423Z,6204.00
2023-04-05T06:35:35.069Z,6208.00
2023-04-05T06:36:34.598Z,6100.00
2023-04-05T06:37:34.368Z,6140.00
2023-04-05T06:38:34.337Z,6276.00
2023-04-05T06:39:35.024Z,6308.00
2023-04-05T06:40:35.008Z,6344.00
2023-04-05T06:41:35.070Z,6380.00
2023-04-05T06:42:34.308Z,6416.00
2023-04-05T06:43:34.287Z,6448.00
2023-04-05T06:44:34.283Z,6468.00
2023-04-05T06:45:34.965Z,6504.00
2023-04-05T06:46:34.945Z,6552.00
2023-04-05T06:47:34.288Z,6592.00
2023-04-05T06:48:34.919Z,6620.00
2023-04-05T06:49:34.927Z,6652.00
2023-04-05T06:50:34.218Z,6684.00
2023-04-05T06:51:34.997Z,6728.00
2023-04-05T06:52:34.854Z,6764.00
2023-04-05T06:53:34.861Z,6816.00
2023-04-05T06:54:34.173Z,6884.00
2023-04-05T06:55:34.172Z,6948.00
2023-04-05T06:56:35.066Z,7012.00
2023-04-05T06:57:34.806Z,7056.00
2023-04-05T06:58:35.074Z,7120.00
2023-04-05T06:59:34.225Z,7220.00
2023-04-05T07:00:34.788Z,7500.00
2023-04-05T07:01:35.088Z,8364.00
2023-04-05T07:02:36.195Z,9936.00
2023-04-05T07:03:35.046Z,10948.00
2023-04-05T07:04:34.124Z,13716.00
2023-04-05T07:05:34.041Z,18016.00
2023-04-05T07:06:34.981Z,19520.00
2023-04-05T07:07:34.038Z,18560.00
2023-04-05T07:08:34.731Z,17248.00
2023-04-05T07:09:34.036Z,16960.00
2023-04-05T07:10:35.979Z,21920.00
2023-04-05T07:11:34.957Z,26528.00
2023-04-05T07:12:34.637Z,26464.00
2023-04-05T07:13:34.649Z,22624.00
2023-04-05T07:14:34.635Z,18176.00
2023-04-05T07:15:34.625Z,13804.00
2023-04-05T07:16:34.627Z,12724.00
2023-04-05T07:17:34.596Z,12332.00
2023-04-05T07:18:34.785Z,11420.00
2023-04-05T07:19:34.840Z,10300.00
2023-04-05T07:20:34.570Z,9660.00
2023-04-05T07:21:34.565Z,9240.00
2023-04-05T07:22:34.540Z,8976.00
2023-04-05T07:23:34.537Z,8868.00
2023-04-05T07:24:34.788Z,8872.00
2023-04-05T07:25:34.795Z,8980.00
2023-04-05T07:26:34.506Z,9280.00
2023-04-05T07:27:33.854Z,10884.00
2023-04-05T07:28:34.493Z,14896.00
2023-04-05T07:29:34.471Z,17760.00
2023-04-05T07:30:34.480Z,18816.00
2023-04-05T07:31:34.448Z,19456.00
2023-04-05T07:32:33.843Z,19840.00
2023-04-05T07:33:33.751Z,21504.00
2023-04-05T07:34:34.418Z,21056.00
2023-04-05T07:35:34.431Z,19360.00
2023-04-05T07:36:34.943Z,21696.00
2023-04-05T07:37:33.741Z,23648.00
2023-04-05T07:38:33.728Z,23616.00
2023-04-05T07:39:33.697Z,23904.00
2023-04-05T07:40:34.354Z,25568.00
2023-04-05T07:41:33.664Z,25056.00
2023-04-05T07:42:33.675Z,24992.00
2023-04-05T07:43:34.324Z,25216.00
2023-04-05T07:44:33.633Z,24256.00
2023-04-05T07:45:34.301Z,23616.00
2023-04-05T07:46:33.674Z,26816.00
2023-04-05T07:47:34.302Z,27648.00
2023-04-05T07:48:33.600Z,26688.00
2023-04-05T07:49:34.297Z,25664.00
2023-04-05T07:50:33.580Z,27392.00
2023-04-05T07:51:34.233Z,28512.00
2023-04-05T07:52:33.556Z,27232.00
2023-04-05T07:53:33.550Z,27648.00
2023-04-05T07:54:34.205Z,27072.00
2023-04-05T07:55:34.197Z,27136.00
2023-04-05T07:56:34.178Z,26880.00
2023-04-05T07:57:33.499Z,27232.00
2023-04-05T07:58:33.503Z,28928.00
2023-04-05T07:59:34.242Z,29888.00
2023-04-05T08:00:34.398Z,29696.00
2023-04-05T08:01:34.121Z,27456.00
2023-04-05T08:02:33.515Z,25152.00
2023-04-05T08:03:33.498Z,25632.00
2023-04-05T08:04:33.533Z,30400.00
2023-04-05T08:05:34.086Z,32160.00
2023-04-05T08:06:33.379Z,32704.00
2023-04-05T08:07:33.371Z,32064.00
2023-04-05T08:08:33.660Z,31904.00
2023-04-05T08:09:33.357Z,33856.00
2023-04-05T08:10:34.030Z,35680.00
2023-04-05T08:11:35.276Z,36192.00
2023-04-05T08:12:34.005Z,35296.00
2023-04-05T08:13:33.325Z,34752.00
2023-04-05T08:14:33.991Z,34208.00
2023-04-05T08:15:33.294Z,34272.00
2023-04-05T08:16:33.305Z,36416.00
2023-04-05T08:17:33.304Z,37088.00
2023-04-05T08:18:33.927Z,35232.00
2023-04-05T08:19:33.930Z,37440.00
2023-04-05T08:20:33.238Z,38848.00
2023-04-05T08:21:33.925Z,39488.00
2023-04-05T08:22:33.229Z,38656.00
2023-04-05T08:23:33.227Z,35360.00
2023-04-05T08:24:33.886Z,33824.00
2023-04-05T08:25:33.882Z,36448.00
2023-04-05T08:26:33.191Z,35488.00
2023-04-05T08:27:33.841Z,35808.00
2023-04-05T08:28:33.819Z,37792.00
2023-04-05T08:29:33.150Z,37824.00
2023-04-05T08:30:33.271Z,37568.00
2023-04-05T08:31:33.894Z,33632.00
2023-04-05T08:32:33.260Z,34240.00
2023-04-05T08:33:33.107Z,33120.00
2023-04-05T08:34:33.768Z,33504.00
2023-04-05T08:35:33.100Z,32000.00
2023-04-05T08:36:33.746Z,32448.00
2023-04-05T08:37:33.060Z,33696.00
2023-04-05T08:38:33.044Z,30624.00
2023-04-05T08:39:33.709Z,33184.00
2023-04-05T08:40:33.018Z,34848.00
2023-04-05T08:41:33.002Z,32736.00
2023-04-05T08:42:33.679Z,33696.00
2023-04-05T08:43:33.008Z,30048.00
2023-04-05T08:44:32.988Z,28864.00
2023-04-05T08:45:33.668Z,28640.00
2023-04-05T08:46:33.637Z,30432.00
2023-04-05T08:47:33.648Z,30112.00
2023-04-05T08:48:33.007Z,26752.00
2023-04-05T08:49:32.940Z,24064.00
2023-04-05T08:50:32.922Z,23552.00
2023-04-05T08:51:32.907Z,21856.00
2023-04-05T08:52:32.905Z,21696.00
2023-04-05T08:53:33.544Z,20544.00
2023-04-05T08:54:32.898Z,20544.00
2023-04-05T08:55:32.871Z,20768.00
2023-04-05T08:56:32.849Z,23552.00
2023-04-05T08:57:32.839Z,23392.00
2023-04-05T08:58:33.503Z,19584.00
2023-04-05T08:59:32.918Z,17024.00
2023-04-05T09:00:32.808Z,16992.00
2023-04-05T09:01:32.860Z,11712.00
2023-04-05T09:02:32.959Z,8512.00
2023-04-05T09:03:32.948Z,7660.00
2023-04-05T09:04:33.448Z,7088.00
2023-04-05T09:05:32.761Z,6608.00
2023-04-05T09:06:33.425Z,6236.00
2023-04-05T09:07:32.741Z,6004.00
2023-04-05T09:08:32.742Z,5824.00
2023-04-05T09:09:33.413Z,5664.00
2023-04-05T09:10:33.383Z,5564.00
2023-04-05T09:11:33.379Z,5436.00
2023-04-05T09:12:33.359Z,5344.00
2023-04-05T09:13:32.676Z,5256.00
2023-04-05T09:14:34.120Z,5188.00
2023-04-05T09:15:33.336Z,5068.00
2023-04-05T09:16:33.383Z,5008.00
2023-04-05T09:17:33.326Z,4980.00
2023-04-05T09:18:33.313Z,4920.00
2023-04-05T09:19:32.590Z,4872.00
2023-04-05T09:20:32.585Z,4840.00
2023-04-05T09:21:32.569Z,4796.00
2023-04-05T09:22:32.567Z,4744.00
2023-04-05T09:23:33.226Z,4680.00
2023-04-05T09:24:34.511Z,4648.00
2023-04-05T09:25:33.222Z,4604.00
2023-04-05T09:26:33.200Z,4572.00
2023-04-05T09:27:32.521Z,4556.00
2023-04-05T09:28:32.523Z,4452.00
2023-04-05T09:29:33.189Z,4376.00
2023-04-05T09:30:32.481Z,4396.00
2023-04-05T09:31:33.196Z,4432.00
2023-04-05T09:32:32.473Z,4376.00
2023-04-05T09:33:32.466Z,4376.00
2023-04-05T09:34:33.121Z,4376.00
2023-04-05T09:35:32.485Z,4388.00
2023-04-05T09:36:32.422Z,4360.00
2023-04-05T09:37:33.092Z,4356.00
2023-04-05T09:38:32.423Z,4344.00
2023-04-05T09:39:33.081Z,4380.00
2023-04-05T09:40:33.065Z,4444.00
2023-04-05T09:41:33.043Z,4544.00
2023-04-05T09:42:32.360Z,4588.00
2023-04-05T09:43:32.365Z,4528.00
2023-04-05T09:44:33.023Z,4416.00
2023-04-05T09:45:33.000Z,4356.00
2023-04-05T09:46:33.024Z,4332.00
2023-04-05T09:47:33.020Z,4388.00
2023-04-05T09:48:32.964Z,4736.00
2023-04-05T09:49:32.957Z,4552.00
2023-04-05T09:50:32.952Z,4352.00
2023-04-05T09:51:32.947Z,4352.00
2023-04-05T09:52:32.941Z,4336.00
2023-04-05T09:53:32.899Z,4328.00
2023-04-05T09:54:32.217Z,4324.00
2023-04-05T09:55:32.202Z,4312.00
2023-04-05T09:56:32.893Z,4308.00
2023-04-05T09:57:32.868Z,4312.00
2023-04-05T09:58:32.186Z,4304.00
2023-04-05T09:59:32.255Z,4276.00
2023-04-05T10:00:32.158Z,4184.00
2023-04-05T10:01:32.183Z,4164.00
2023-04-05T10:02:32.868Z,4104.00
2023-04-05T10:03:32.870Z,4116.00
2023-04-05T10:04:32.100Z,4140.00
2023-04-05T10:05:32.138Z,4132.00
2023-04-05T10:06:32.802Z,4132.00
2023-04-05T10:07:32.070Z,4176.00
2023-04-05T10:08:32.082Z,4176.00
2023-04-05T10:09:34.429Z,4156.00
2023-04-05T10:10:32.032Z,4180.00
2023-04-05T10:11:32.711Z,4136.00
2023-04-05T10:12:32.017Z,4128.00
2023-04-05T10:13:32.185Z,4132.00
2023-04-05T10:14:32.682Z,4072.00
2023-04-05T10:15:32.664Z,4096.00
2023-04-05T10:16:32.701Z,4092.00
2023-04-05T10:17:32.674Z,4088.00
2023-04-05T10:18:31.963Z,4096.00
2023-04-05T10:19:31.924Z,4116.00
2023-04-05T10:20:32.617Z,4100.00
2023-04-05T10:21:32.602Z,4112.00
2023-04-05T10:22:31.908Z,4092.00
2023-04-05T10:23:31.912Z,4084.00
2023-04-05T10:24:33.821Z,4132.00
2023-04-05T10:25:32.557Z,4156.00
2023-04-05T10:26:31.867Z,4140.00
2023-04-05T10:27:32.547Z,4124.00
2023-04-05T10:28:32.501Z,4068.00
2023-04-05T10:29:32.564Z,3976.00
2023-04-05T10:30:31.815Z,3912.00
2023-04-05T10:31:37.724Z,3856.00
2023-04-05T10:32:32.834Z,3732.00
2023-04-05T10:33:32.516Z,3556.00
2023-04-05T10:34:32.477Z,3504.00
2023-04-05T10:35:31.799Z,3604.00
2023-04-05T10:36:32.488Z,3456.00
2023-04-05T10:37:32.428Z,3440.00
2023-04-05T10:38:32.395Z,3356.00
2023-04-05T10:39:31.767Z,3504.00
2023-04-05T10:40:31.714Z,3676.00
2023-04-05T10:41:31.700Z,3640.00
2023-04-05T10:42:32.368Z,3500.00
2023-04-05T10:43:32.359Z,3232.00
2023-04-05T10:44:31.654Z,3164.00
2023-04-05T10:45:32.642Z,3160.00
2023-04-05T10:46:31.680Z,3288.00
2023-04-05T10:47:31.775Z,3452.00
2023-04-05T10:48:31.644Z,3448.00
2023-04-05T10:49:31.659Z,3264.00
2023-04-05T10:50:31.609Z,3108.00
2023-04-05T10:51:31.600Z,3068.00
2023-04-05T10:52:31.572Z,3056.00
2023-04-05T10:53:31.619Z,3056.00
2023-04-05T10:54:31.559Z,3088.00
2023-04-05T10:55:32.306Z,3084.00
2023-04-05T10:56:31.609Z,3044.00
2023-04-05T10:57:31.513Z,3020.00
2023-04-05T10:58:31.540Z,2980.00
2023-04-05T10:59:32.260Z,2872.00
2023-04-05T11:00:31.559Z,2752.00
2023-04-05T11:01:32.182Z,2700.00
2023-04-05T11:02:31.550Z,2680.00
2023-04-05T11:03:31.597Z,2668.00
2023-04-05T11:04:32.241Z,2652.00
2023-04-05T11:05:32.118Z,2648.00
2023-04-05T11:06:31.443Z,2652.00
2023-04-05T11:07:32.110Z,2620.00
2023-04-05T11:08:32.068Z,2612.00
2023-04-05T11:09:32.085Z,2596.00
2023-04-05T11:10:31.398Z,2592.00
2023-04-05T11:11:31.378Z,2596.00
2023-04-05T11:12:32.082Z,2600.00
2023-04-05T11:13:31.362Z,2604.00
2023-04-05T11:14:31.345Z,2604.00
2023-04-05T11:15:31.341Z,2580.00
2023-04-05T11:16:31.360Z,2568.00
2023-04-05T11:17:31.333Z,2556.00
2023-04-05T11:18:31.963Z,2556.00
2023-04-05T11:19:31.979Z,2548.00
2023-04-05T11:20:31.287Z,2560.00
2023-04-05T11:21:31.265Z,2560.00
2023-04-05T11:22:31.943Z,2572.00
2023-04-05T11:23:31.917Z,2592.00
2023-04-05T11:24:34.628Z,2576.00
2023-04-05T11:25:31.232Z,2576.00
2023-04-05T11:26:31.942Z,2584.00
2023-04-05T11:27:31.202Z,2592.00
2023-04-05T11:28:31.226Z,2576.00
2023-04-05T11:29:31.172Z,2556.00
2023-04-05T11:30:31.858Z,2540.00
2023-04-05T11:31:31.195Z,2520.00
2023-04-05T11:32:31.161Z,2520.00
2023-04-05T11:33:31.812Z,2544.00
2023-04-05T11:34:31.810Z,2564.00
2023-04-05T11:35:31.824Z,2584.00
2023-04-05T11:36:31.111Z,2620.00
2023-04-05T11:37:31.093Z,2644.00
2023-04-05T11:38:31.091Z,2632.00
2023-04-05T11:39:31.087Z,2636.00
2023-04-05T11:40:31.748Z,2576.00
2023-04-05T11:41:31.740Z,2580.00
2023-04-05T11:42:31.732Z,2624.00
2023-04-05T11:43:31.698Z,2696.00
2023-04-05T11:44:31.716Z,2584.00
2023-04-05T11:45:32.321Z,2596.00
2023-04-05T11:46:31.855Z,2580.00
2023-04-05T11:47:31.700Z,2628.00
2023-04-05T11:48:30.999Z,2952.00
2023-04-05T11:49:30.970Z,3184.00
2023-04-05T11:50:30.958Z,3172.00
2023-04-05T11:51:31.633Z,3108.00
2023-04-05T11:52:32.878Z,3104.00
2023-04-05T11:53:31.606Z,3060.00
2023-04-05T11:54:30.943Z,3108.00
2023-04-05T11:55:30.917Z,2876.00
2023-04-05T11:56:30.903Z,2620.00
2023-04-05T11:57:31.834Z,2744.00
2023-04-05T11:58:31.548Z,2732.00
2023-04-05T11:59:30.905Z,2720.00
2023-04-05T12:00:30.843Z,2820.00
2023-04-05T12:01:30.857Z,2940.00
2023-04-05T12:02:30.882Z,2956.00
2023-04-05T12:03:30.910Z,2836.00
2023-04-05T12:04:30.962Z,2600.00
2023-04-05T12:05:31.477Z,2528.00
2023-04-05T12:06:31.483Z,2492.00
2023-04-05T12:07:30.777Z,2484.00
2023-04-05T12:08:31.447Z,2484.00
2023-04-05T12:09:30.764Z,2472.00
2023-04-05T12:10:30.735Z,2452.00
2023-04-05T12:11:31.432Z,2552.00
2023-04-05T12:12:30.723Z,2676.00
2023-04-05T12:13:30.707Z,2464.00
2023-04-05T12:14:31.362Z,2444.00
2023-04-05T12:15:31.375Z,2448.00
2023-04-05T12:16:31.454Z,2488.00
2023-04-05T12:17:31.374Z,2416.00
2023-04-05T12:18:30.663Z,2452.00
2023-04-05T12:19:30.682Z,2524.00
2023-04-05T12:20:31.317Z,2512.00
2023-04-05T12:21:31.305Z,2464.00
2023-04-05T12:22:31.294Z,2400.00
2023-04-05T12:23:31.280Z,2356.00
2023-04-05T12:24:30.643Z,2364.00
2023-04-05T12:25:31.259Z,2360.00
2023-04-05T12:26:30.714Z,2392.00
2023-04-05T12:27:31.241Z,2416.00
2023-04-05T12:28:31.239Z,2424.00
2023-04-05T12:29:31.204Z,2364.00